createdAt,value
2017-11-21T00:00:00.833Z,72.96
2017-11-21T00:02:27.137Z,72.58
2017-11-21T00:04:53.440Z,72.56
2017-11-21T00:07:19.730Z,72.07
2017-11-21T00:09:46.027Z,72.13
2017-11-21T00:12:12.320Z,72.21
2017-11-21T00:14:38.664Z,71.93
2017-11-21T00:17:05.027Z,71.87
2017-11-21T00:19:31.320Z,72.13
2017-11-21T00:21:57.595Z,72.49
2017-11-21T00:24:23.961Z,72.44
2017-11-21T00:26:50.299Z,72.35
2017-11-21T00:29:16.606Z,72.55
2017-11-21T00:31:43.668Z,72.45
2017-11-21T00:34:09.998Z,71.98
2017-11-21T00:36:36.293Z,71.60
2017-11-21T00:39:02.723Z,72.13
2017-11-21T00:41:28.979Z,72.40
2017-11-21T00:43:55.309Z,71.96
2017-11-21T00:46:21.745Z,71.71
2017-11-21T00:48:48.768Z,72.27
2017-11-21T00:51:15.084Z,71.99
2017-11-21T00:53:41.385Z,71.64
2017-11-21T00:56:07.678Z,71.61
2017-11-21T00:58:34.765Z,72.19
2017-11-21T01:01:01.089Z,72.12
2017-11-21T01:03:27.426Z,72.18
2017-11-21T01:05:53.722Z,72.93
2017-11-21T01:08:20.054Z,73.14
2017-11-21T01:10:47.138Z,73.00
2017-11-21T01:13:13.421Z,72.73
2017-11-21T01:15:40.522Z,73.00
2017-11-21T01:18:06.853Z,73.14
2017-11-21T01:20:33.168Z,72.64
2017-11-21T01:22:59.488Z,72.60
2017-11-21T01:25:25.772Z,72.52
2017-11-21T01:27:52.092Z,72.72
2017-11-21T01:30:18.396Z,73.35
2017-11-21T01:32:44.733Z,73.97
2017-11-21T01:35:11.025Z,74.18
2017-11-21T01:37:38.072Z,73.86
2017-11-21T01:40:05.152Z,73.06
2017-11-21T01:42:31.514Z,72.62
2017-11-21T01:44:57.813Z,73.09
2017-11-21T01:47:24.141Z,72.54
2017-11-21T01:49:50.440Z,71.97
2017-11-21T01:52:17.495Z,72.18
2017-11-21T01:54:44.509Z,72.61
2017-11-21T01:57:10.845Z,72.34
2017-11-21T01:59:37.133Z,72.00
2017-11-21T02:02:03.493Z,71.83
2017-11-21T02:04:29.799Z,72.07
2017-11-21T02:06:56.140Z,72.08
2017-11-21T02:09:22.458Z,71.96
2017-11-21T02:11:48.796Z,71.78
2017-11-21T02:14:15.084Z,71.87
2017-11-21T02:16:42.130Z,72.47
2017-11-21T02:19:09.233Z,72.47
2017-11-21T02:21:35.568Z,72.78
2017-11-21T02:24:01.873Z,72.70
2017-11-21T02:26:28.178Z,72.85
2017-11-21T02:28:55.255Z,72.93
2017-11-21T02:31:21.557Z,72.67
2017-11-21T02:33:48.614Z,72.63
2017-11-21T02:36:14.895Z,72.71
2017-11-21T02:38:42.041Z,72.87
2017-11-21T02:41:08.347Z,72.02
2017-11-21T02:43:35.264Z,72.35
2017-11-21T02:46:02.335Z,72.90
2017-11-21T02:48:28.643Z,73.33
2017-11-21T02:50:55.717Z,72.92
2017-11-21T02:53:22.065Z,72.76
2017-11-21T02:55:48.394Z,73.15
2017-11-21T02:58:14.721Z,73.45
2017-11-21T03:00:41.033Z,73.15
2017-11-21T03:03:07.398Z,73.49
2017-11-21T03:05:33.714Z,73.64
2017-11-21T03:08:00.025Z,73.26
2017-11-21T03:10:26.390Z,72.77
2017-11-21T03:12:53.468Z,72.60
2017-11-21T03:15:19.802Z,72.12
2017-11-21T03:17:46.120Z,72.69
2017-11-21T03:20:31.078Z,72.71
2017-11-21T03:23:17.561Z,72.87
2017-11-21T03:28:56.903Z,73.64
2017-11-21T03:31:23.195Z,73.04
2017-11-21T03:33:49.489Z,72.76
2017-11-21T03:36:15.831Z,72.90
2017-11-21T03:38:42.216Z,72.97
2017-11-21T03:41:09.280Z,72.95
2017-11-21T03:43:35.611Z,73.25
2017-11-21T03:46:02.026Z,73.83
2017-11-21T03:48:29.110Z,73.53
2017-11-21T03:50:55.439Z,73.41
2017-11-21T03:53:21.770Z,73.60
2017-11-21T03:55:48.107Z,73.88
2017-11-21T03:58:14.398Z,73.51
2017-11-21T04:00:41.480Z,73.79
2017-11-21T04:03:07.803Z,73.95
2017-11-21T04:05:34.140Z,74.04
2017-11-21T04:08:00.451Z,74.36
2017-11-21T04:10:26.869Z,74.40
2017-11-21T04:12:53.921Z,73.65
2017-11-21T04:15:20.970Z,74.32
2017-11-21T04:17:47.322Z,73.52
2017-11-21T04:20:13.659Z,73.59
2017-11-21T04:22:40.580Z,73.62
2017-11-21T04:25:07.824Z,73.77
2017-11-21T04:27:34.818Z,73.96
2017-11-21T04:30:01.129Z,74.31
2017-11-21T04:32:27.488Z,74.09
2017-11-21T04:34:53.880Z,74.29
2017-11-21T04:37:20.166Z,73.77
2017-11-21T04:39:46.534Z,73.85
2017-11-21T04:42:13.715Z,73.87
2017-11-21T04:44:40.088Z,74.00
2017-11-21T04:47:06.497Z,74.15
2017-11-21T04:49:32.946Z,74.22
2017-11-21T04:51:59.408Z,73.85
2017-11-21T04:54:26.667Z,73.62
2017-11-21T04:56:53.759Z,73.95
2017-11-21T04:59:20.059Z,74.33
2017-11-21T05:01:46.431Z,74.71
2017-11-21T05:04:12.806Z,74.42
2017-11-21T05:06:39.257Z,74.09
2017-11-21T05:09:05.653Z,73.93
2017-11-21T05:11:32.076Z,74.27
2017-11-21T05:13:59.173Z,73.97
2017-11-21T05:16:25.603Z,73.82
2017-11-21T05:18:51.970Z,74.12
2017-11-21T05:21:18.359Z,74.04
2017-11-21T05:23:45.434Z,74.40
2017-11-21T05:26:11.982Z,74.29
2017-11-21T05:28:38.312Z,74.14
2017-11-21T05:31:04.740Z,74.21
2017-11-21T05:33:38.035Z,74.01
2017-11-21T05:36:04.389Z,74.04
2017-11-21T05:38:30.729Z,74.57
2017-11-21T05:40:57.825Z,74.41
2017-11-21T05:43:24.231Z,74.14
2017-11-21T05:45:51.325Z,74.45
2017-11-21T05:48:17.685Z,74.51
2017-11-21T05:50:44.100Z,74.79
2017-11-21T05:53:10.489Z,74.86
2017-11-21T05:55:36.821Z,74.83
2017-11-21T05:58:03.186Z,74.72
2017-11-21T06:00:29.548Z,74.56
2017-11-21T06:02:55.898Z,74.21
2017-11-21T06:05:22.266Z,73.76
2017-11-21T06:07:48.600Z,73.92
2017-11-21T06:10:14.964Z,73.65
2017-11-21T06:12:41.450Z,73.64
2017-11-21T06:15:07.984Z,73.76
2017-11-21T06:17:34.545Z,73.34
2017-11-21T06:20:01.074Z,73.82
2017-11-21T06:22:27.479Z,74.14
2017-11-21T06:24:53.826Z,74.48
2017-11-21T06:27:20.258Z,74.31
2017-11-21T06:29:47.323Z,74.45
2017-11-21T06:32:13.773Z,74.08
2017-11-21T06:34:40.086Z,73.99
2017-11-21T06:37:06.363Z,74.16
2017-11-21T06:39:32.715Z,74.36
2017-11-21T06:41:59.044Z,74.33
2017-11-21T06:44:25.496Z,74.04
2017-11-21T06:46:51.838Z,74.06
2017-11-21T06:49:18.167Z,73.86
2017-11-21T06:51:44.598Z,73.57
2017-11-21T06:54:10.983Z,73.54
2017-11-21T06:56:37.340Z,73.46
2017-11-21T06:59:03.711Z,73.76
2017-11-21T07:01:30.210Z,73.59
2017-11-21T07:03:57.423Z,74.00
2017-11-21T07:06:24.609Z,73.51
2017-11-21T07:08:50.993Z,73.96
2017-11-21T07:11:17.344Z,73.91
2017-11-21T07:13:43.775Z,74.27
2017-11-21T07:16:10.232Z,73.79
2017-11-21T07:18:36.555Z,73.57
2017-11-21T07:21:02.847Z,74.03
2017-11-21T07:23:29.334Z,73.45
2017-11-21T07:25:55.832Z,73.26
2017-11-21T07:28:22.308Z,73.24
2017-11-21T07:30:48.640Z,73.25
2017-11-21T07:33:15.883Z,73.48
2017-11-21T07:35:43.221Z,73.06
2017-11-21T07:38:09.593Z,72.96
2017-11-21T07:40:36.717Z,73.41
2017-11-21T07:43:03.092Z,73.79
2017-11-21T07:45:29.520Z,73.80
2017-11-21T07:47:55.949Z,73.99
2017-11-21T07:50:22.997Z,73.55
2017-11-21T07:52:49.363Z,73.34
2017-11-21T07:55:15.698Z,73.12
2017-11-21T07:57:41.991Z,72.70
2017-11-21T08:00:09.017Z,72.94
2017-11-21T08:02:36.064Z,72.76
2017-11-21T08:05:02.365Z,73.71
2017-11-21T08:07:28.755Z,73.63
2017-11-21T08:09:55.838Z,73.10
2017-11-21T08:12:22.168Z,73.14
2017-11-21T08:14:48.498Z,72.96
2017-11-21T08:17:14.834Z,74.13
2017-11-21T08:19:41.198Z,74.12
2017-11-21T08:22:08.409Z,74.20
2017-11-21T08:24:34.709Z,73.92
2017-11-21T08:27:01.796Z,74.94
2017-11-21T08:29:28.201Z,74.21
2017-11-21T08:31:54.702Z,74.34
2017-11-21T08:34:21.091Z,76.58
2017-11-21T08:36:47.445Z,78.57
2017-11-21T08:39:13.823Z,80.60
2017-11-21T08:41:40.166Z,80.25
2017-11-21T08:44:06.533Z,81.10
2017-11-21T08:46:32.894Z,81.37
2017-11-21T08:48:59.216Z,80.44
2017-11-21T08:51:25.629Z,78.99
2017-11-21T08:53:51.994Z,78.96
2017-11-21T08:56:19.142Z,78.54
2017-11-21T08:58:45.448Z,78.22
2017-11-21T09:01:11.798Z,76.73
2017-11-21T09:03:38.173Z,76.87
2017-11-21T09:06:04.517Z,76.88
2017-11-21T09:08:30.824Z,76.64
2017-11-21T09:10:57.170Z,76.53
2017-11-21T09:13:23.564Z,76.33
2017-11-21T09:15:50.678Z,76.04
2017-11-21T09:18:17.047Z,77.27
2017-11-21T09:20:43.382Z,78.64
2017-11-21T09:23:10.458Z,78.44
2017-11-21T09:25:37.633Z,78.28
2017-11-21T09:28:03.977Z,77.16
2017-11-21T09:30:30.279Z,77.42
2017-11-21T09:32:56.595Z,76.87
2017-11-21T09:35:23.035Z,76.72
2017-11-21T09:37:49.373Z,77.14
2017-11-21T09:40:16.507Z,77.01
2017-11-21T09:42:42.851Z,77.20
2017-11-21T09:45:09.106Z,77.79
2017-11-21T09:47:36.061Z,77.46
2017-11-21T09:50:02.393Z,77.85
2017-11-21T09:52:28.746Z,77.47
2017-11-21T09:54:55.089Z,76.77
2017-11-21T09:57:21.488Z,76.58
2017-11-21T09:59:47.822Z,77.02
2017-11-21T10:02:14.181Z,75.81
2017-11-21T10:04:41.440Z,76.64
2017-11-21T10:07:07.863Z,77.14
2017-11-21T10:09:34.337Z,77.82
2017-11-21T10:12:00.700Z,77.02
2017-11-21T10:14:27.052Z,77.47
2017-11-21T10:16:53.433Z,77.71
2017-11-21T10:19:19.786Z,77.99
2017-11-21T10:21:46.160Z,78.02
2017-11-21T10:24:12.493Z,77.55
2017-11-21T10:26:39.569Z,78.06
2017-11-21T10:29:05.993Z,77.31
2017-11-21T10:31:32.465Z,77.23
2017-11-21T10:33:58.805Z,77.51
2017-11-21T10:36:25.238Z,77.81
2017-11-21T10:38:51.691Z,76.91
2017-11-21T10:41:18.112Z,75.88
2017-11-21T10:43:44.537Z,74.85
2017-11-21T10:46:10.893Z,76.34
2017-11-21T10:48:37.230Z,76.41
2017-11-21T10:51:03.596Z,77.08
2017-11-21T10:53:29.938Z,76.76
2017-11-21T10:55:57.124Z,75.42
2017-11-21T10:58:23.473Z,73.32
2017-11-21T11:00:49.846Z,73.76
2017-11-21T11:03:16.196Z,73.95
2017-11-21T11:05:42.622Z,73.87
2017-11-21T11:08:08.908Z,74.29
2017-11-21T11:10:35.268Z,72.89
2017-11-21T11:13:01.646Z,73.92
2017-11-21T11:15:28.100Z,72.52
2017-11-21T11:17:54.390Z,71.82
2017-11-21T11:20:20.825Z,71.30
2017-11-21T11:22:47.240Z,71.08
2017-11-21T11:25:13.643Z,71.02
2017-11-21T11:27:40.074Z,69.75
2017-11-21T11:30:06.413Z,68.01
2017-11-21T11:32:32.808Z,67.49
2017-11-21T11:34:59.113Z,68.28
2017-11-21T11:37:25.453Z,69.61
2017-11-21T11:39:51.808Z,69.30
2017-11-21T11:42:18.356Z,69.57
2017-11-21T11:44:44.796Z,69.53
2017-11-21T11:47:11.382Z,69.33
2017-11-21T11:49:37.816Z,68.90
2017-11-21T11:52:04.123Z,69.68
2017-11-21T11:54:30.534Z,70.61
2017-11-21T11:56:57.686Z,68.72
2017-11-21T11:59:24.068Z,68.21
2017-11-21T12:01:50.441Z,68.59
2017-11-21T12:04:16.864Z,69.03
2017-11-21T12:06:43.261Z,68.27
2017-11-21T12:09:09.642Z,68.79
2017-11-21T12:11:36.060Z,69.66
2017-11-21T12:14:02.564Z,70.25
2017-11-21T12:16:28.911Z,69.75
2017-11-21T12:18:55.259Z,70.46
2017-11-21T12:21:21.615Z,71.66
2017-11-21T12:23:48.013Z,71.02
2017-11-21T12:26:14.358Z,71.74
2017-11-21T12:28:40.679Z,73.15
2017-11-21T12:31:07.024Z,73.44
2017-11-21T12:33:33.346Z,72.63
2017-11-21T12:35:59.718Z,72.09
2017-11-21T12:38:26.831Z,71.51
2017-11-21T12:40:53.214Z,71.52
2017-11-21T12:43:19.555Z,70.58
2017-11-21T12:45:45.887Z,70.79
2017-11-21T12:48:12.230Z,71.68
2017-11-21T12:50:38.581Z,72.10
2017-11-21T12:53:04.893Z,71.37
2017-11-21T12:55:31.358Z,71.51
2017-11-21T12:57:57.756Z,70.88
2017-11-21T13:00:25.103Z,72.38
2017-11-21T13:02:51.567Z,72.85
2017-11-21T13:05:17.881Z,72.76
2017-11-21T13:07:44.262Z,73.18
2017-11-21T13:10:11.365Z,74.50
2017-11-21T13:12:37.726Z,73.14
2017-11-21T13:15:04.107Z,71.50
2017-11-21T13:17:30.610Z,70.90
2017-11-21T13:19:57.088Z,70.62
2017-11-21T13:22:23.624Z,70.00
2017-11-21T13:24:50.059Z,70.15
2017-11-21T13:27:16.442Z,69.29
2017-11-21T13:29:43.469Z,69.72
2017-11-21T13:32:09.891Z,70.35
2017-11-21T13:34:36.242Z,70.58
2017-11-21T13:37:03.283Z,69.51
2017-11-21T13:39:29.714Z,69.02
2017-11-21T13:41:56.115Z,69.64
2017-11-21T13:44:22.513Z,70.07
2017-11-21T13:46:49.647Z,70.74
2017-11-21T13:49:16.019Z,71.08
2017-11-21T13:51:42.564Z,70.02
2017-11-21T13:54:09.029Z,70.24
2017-11-21T13:56:35.435Z,71.33
2017-11-21T13:59:01.795Z,71.82
2017-11-21T14:01:28.290Z,71.68
2017-11-21T14:03:54.785Z,71.40
2017-11-21T14:06:21.202Z,71.99
2017-11-21T14:08:47.616Z,72.27
2017-11-21T14:11:13.964Z,71.88
2017-11-21T14:13:40.345Z,72.49
2017-11-21T14:16:06.696Z,72.84
2017-11-21T14:18:33.028Z,73.58
2017-11-21T14:20:59.389Z,73.64
2017-11-21T14:23:25.682Z,74.43
2017-11-21T14:25:52.078Z,73.60
2017-11-21T14:28:19.190Z,74.11
2017-11-21T14:30:45.513Z,74.39
2017-11-21T14:33:11.847Z,74.32
2017-11-21T14:35:38.183Z,74.03
2017-11-21T14:38:04.598Z,74.10
2017-11-21T14:40:30.966Z,73.47
2017-11-21T14:42:57.358Z,73.41
2017-11-21T14:45:23.690Z,73.87
2017-11-21T14:47:50.079Z,73.80
2017-11-21T14:50:16.545Z,74.61
2017-11-21T14:52:42.932Z,74.81
2017-11-21T14:55:09.319Z,75.43
2017-11-21T14:57:35.741Z,75.71
2017-11-21T15:00:02.947Z,75.71
2017-11-21T15:02:29.855Z,75.73
2017-11-21T15:04:56.477Z,74.96
2017-11-21T15:07:23.545Z,74.51
2017-11-21T15:09:49.936Z,74.52
2017-11-21T15:12:17.019Z,75.11
2017-11-21T15:14:43.370Z,75.05
2017-11-21T15:17:09.764Z,74.82
2017-11-21T15:19:36.163Z,74.93
2017-11-21T15:22:02.626Z,75.12
2017-11-21T15:24:29.774Z,74.76
2017-11-21T15:26:56.923Z,75.11
2017-11-21T15:29:24.004Z,74.80
2017-11-21T15:31:50.344Z,74.63
2017-11-21T15:34:16.681Z,74.58
2017-11-21T15:36:43.004Z,74.96
2017-11-21T15:39:09.333Z,75.27
2017-11-21T15:41:35.736Z,75.45
2017-11-21T15:44:02.057Z,76.18
2017-11-21T15:46:29.139Z,75.55
2017-11-21T15:48:56.668Z,75.42
2017-11-21T15:51:23.067Z,75.82
2017-11-21T15:53:49.435Z,75.63
2017-11-21T15:56:16.572Z,76.21
2017-11-21T15:58:42.940Z,75.91
2017-11-21T16:01:09.438Z,76.58
2017-11-21T16:03:35.822Z,77.55
2017-11-21T16:06:02.275Z,76.96
2017-11-21T16:08:28.588Z,76.60
2017-11-21T16:10:55.009Z,76.99
2017-11-21T16:13:21.391Z,77.15
2017-11-21T16:15:47.788Z,76.86
2017-11-21T16:18:14.130Z,77.05
2017-11-21T16:20:40.483Z,77.12
2017-11-21T16:23:06.824Z,77.23
2017-11-21T16:25:33.142Z,77.10
2017-11-21T16:27:59.527Z,77.26
2017-11-21T16:30:25.890Z,77.07
2017-11-21T16:32:52.244Z,76.69
2017-11-21T16:35:19.320Z,76.61
2017-11-21T16:37:46.398Z,77.10
2017-11-21T16:40:12.743Z,76.89
2017-11-21T16:42:39.101Z,76.63
2017-11-21T16:45:05.495Z,76.63
2017-11-21T16:47:31.845Z,76.59
2017-11-21T16:49:58.230Z,76.85
2017-11-21T16:52:24.658Z,77.09
2017-11-21T16:54:51.048Z,77.34
2017-11-21T16:57:17.469Z,77.47
2017-11-21T16:59:43.844Z,77.71
2017-11-21T17:02:10.271Z,77.74
2017-11-21T17:04:36.727Z,77.64
2017-11-21T17:07:03.061Z,77.76
2017-11-21T17:09:30.113Z,77.54
2017-11-21T17:11:57.305Z,76.78
2017-11-21T17:14:23.696Z,77.13
2017-11-21T17:16:50.905Z,77.37
2017-11-21T17:19:17.262Z,77.25
2017-11-21T17:21:43.591Z,76.93
2017-11-21T17:24:10.041Z,76.97
2017-11-21T17:26:37.253Z,76.58
2017-11-21T17:29:03.787Z,76.50
2017-11-21T17:31:30.287Z,76.44
2017-11-21T17:33:56.620Z,76.55
2017-11-21T17:36:23.081Z,76.05
2017-11-21T17:38:49.485Z,76.37
2017-11-21T17:41:15.921Z,75.68
2017-11-21T17:43:42.310Z,75.49
2017-11-21T17:46:08.821Z,75.26
2017-11-21T17:48:35.191Z,75.04
2017-11-21T17:51:02.413Z,75.02
2017-11-21T17:53:28.896Z,75.30
2017-11-21T17:55:55.301Z,75.18
2017-11-21T17:58:21.910Z,75.09
2017-11-21T18:00:49.202Z,75.14
2017-11-21T18:03:16.299Z,75.14
2017-11-21T18:05:42.744Z,75.55
2017-11-21T18:08:09.222Z,75.42
2017-11-21T18:10:36.326Z,75.71
2017-11-21T18:13:02.857Z,76.50
2017-11-21T18:15:29.217Z,77.15
2017-11-21T18:17:55.644Z,77.23
2017-11-21T18:20:22.014Z,77.77
2017-11-21T18:22:49.131Z,77.75
2017-11-21T18:25:15.588Z,77.53
2017-11-21T18:27:42.661Z,77.97
2017-11-21T18:30:09.039Z,78.46
2017-11-21T18:32:35.532Z,78.51
2017-11-21T18:35:01.888Z,78.79
2017-11-21T18:37:28.690Z,78.82
2017-11-21T18:39:55.779Z,78.02
2017-11-21T18:42:22.963Z,78.01
2017-11-21T18:44:50.114Z,78.51
2017-11-21T18:47:16.549Z,78.98
2017-11-21T18:49:42.986Z,79.08
2017-11-21T18:52:09.441Z,78.98
2017-11-21T18:54:36.546Z,78.99
2017-11-21T18:57:02.912Z,78.69
2017-11-21T18:59:30.055Z,78.87
2017-11-21T19:01:56.455Z,78.80
2017-11-21T19:04:22.898Z,79.12
2017-11-21T19:06:49.225Z,79.02
2017-11-21T19:09:15.707Z,79.19
2017-11-21T19:11:42.165Z,79.65
2017-11-21T19:14:08.721Z,79.21
2017-11-21T19:16:35.105Z,79.49
2017-11-21T19:19:02.358Z,79.64
2017-11-21T19:21:29.564Z,80.16
2017-11-21T19:23:56.658Z,79.94
2017-11-21T19:26:23.763Z,79.82
2017-11-21T19:28:50.164Z,79.96
2017-11-21T19:31:16.628Z,80.05
2017-11-21T19:33:42.997Z,80.00
2017-11-21T19:36:10.112Z,79.94
2017-11-21T19:38:38.114Z,80.30
2017-11-21T19:41:05.272Z,80.21
2017-11-21T19:43:32.684Z,80.38
2017-11-21T19:45:59.531Z,81.24
2017-11-21T19:48:26.241Z,80.91
2017-11-21T19:50:52.702Z,81.18
2017-11-21T19:53:19.309Z,81.05
2017-11-21T19:55:46.584Z,80.65
2017-11-21T19:58:13.087Z,80.52
2017-11-21T20:00:39.460Z,80.42
2017-11-21T20:03:05.864Z,80.47
2017-11-21T20:05:33.040Z,80.44
2017-11-21T20:08:00.661Z,80.23
2017-11-21T20:10:27.605Z,80.04
2017-11-21T20:12:54.625Z,80.15
2017-11-21T20:15:22.370Z,80.22
2017-11-21T20:17:49.459Z,79.84
2017-11-21T20:20:16.811Z,79.82
2017-11-21T20:22:44.611Z,79.80
2017-11-21T20:25:11.545Z,80.23
2017-11-21T20:27:38.912Z,80.29
2017-11-21T20:30:05.206Z,80.37
2017-11-21T20:32:32.493Z,80.84
2017-11-21T20:34:59.225Z,80.26
2017-11-21T20:37:26.041Z,80.02
2017-11-21T20:39:53.834Z,80.45
2017-11-21T20:42:20.704Z,80.09
2017-11-21T20:44:47.334Z,80.02
2017-11-21T20:47:14.215Z,79.82
2017-11-21T20:49:40.926Z,79.94
2017-11-21T20:52:07.586Z,79.68
2017-11-21T20:54:34.384Z,79.14
2017-11-21T20:57:01.053Z,78.83
2017-11-21T20:59:28.237Z,78.83
2017-11-21T21:01:55.808Z,78.69
2017-11-21T21:04:23.274Z,78.81
2017-11-21T21:06:50.609Z,78.51
2017-11-21T21:09:17.065Z,78.51
2017-11-21T21:11:44.198Z,78.46
2017-11-21T21:14:11.345Z,78.74
2017-11-21T21:16:38.748Z,78.66
2017-11-21T21:19:05.424Z,78.26
2017-11-21T21:21:32.111Z,78.34
2017-11-21T21:23:58.671Z,78.57
2017-11-21T21:26:25.373Z,78.48
2017-11-21T21:28:52.033Z,77.76
2017-11-21T21:31:18.482Z,77.83
2017-11-21T21:33:45.113Z,77.62
2017-11-21T21:36:12.923Z,77.29
2017-11-21T21:38:40.196Z,77.30
2017-11-21T21:41:07.204Z,76.97
2017-11-21T21:43:34.577Z,77.15
2017-11-21T21:46:01.733Z,76.51
2017-11-21T21:48:28.273Z,76.87
2017-11-21T21:50:55.074Z,76.47
2017-11-21T21:53:21.607Z,76.37
2017-11-21T21:55:49.251Z,76.32
2017-11-21T21:58:15.603Z,77.13
2017-11-21T22:00:45.226Z,76.99
2017-11-21T22:03:11.563Z,77.05
2017-11-21T22:05:37.862Z,77.27
2017-11-21T22:08:04.202Z,77.39
2017-11-21T22:10:31.663Z,77.80
2017-11-21T22:12:58.853Z,77.77
2017-11-21T22:15:25.990Z,77.65
2017-11-21T22:17:52.400Z,77.56
2017-11-21T22:20:18.781Z,77.17
2017-11-21T22:22:45.114Z,76.76
2017-11-21T22:25:17.694Z,76.81
2017-11-21T22:27:44.924Z,76.74
2017-11-21T22:30:12.490Z,76.78
2017-11-21T22:32:39.600Z,76.70
2017-11-21T22:35:06.736Z,76.46
2017-11-21T22:37:33.145Z,76.87
2017-11-21T22:40:00.177Z,76.45
2017-11-21T22:42:26.478Z,76.60
2017-11-21T22:44:53.048Z,76.85
2017-11-21T22:47:19.364Z,76.75
2017-11-21T22:49:47.179Z,76.59
2017-11-21T22:52:13.493Z,76.52
2017-11-21T22:54:39.827Z,76.50
2017-11-21T22:57:06.768Z,76.00
2017-11-21T22:59:33.351Z,75.85
2017-11-21T23:01:59.726Z,75.91
2017-11-21T23:04:26.209Z,76.06
2017-11-21T23:06:52.629Z,76.09
2017-11-21T23:09:19.094Z,75.53
2017-11-21T23:11:45.559Z,76.54
2017-11-21T23:14:11.877Z,76.78
2017-11-21T23:16:39.052Z,76.49
2017-11-21T23:19:06.279Z,76.56
2017-11-21T23:21:32.798Z,76.57
2017-11-21T23:23:59.102Z,77.06
2017-11-21T23:26:25.499Z,76.68
2017-11-21T23:28:52.663Z,76.46
2017-11-21T23:31:19.842Z,76.94
2017-11-21T23:33:46.193Z,77.56
2017-11-21T23:36:12.670Z,77.65
2017-11-21T23:38:39.747Z,77.71
2017-11-21T23:41:06.123Z,77.77
2017-11-21T23:43:33.236Z,77.97
2017-11-21T23:45:59.592Z,77.60
2017-11-21T23:48:26.649Z,77.48
2017-11-21T23:50:52.976Z,77.64
2017-11-21T23:53:19.384Z,77.42
2017-11-21T23:55:45.850Z,77.01
2017-11-21T23:58:12.207Z,76.49
